sensor_id;sensor_type;location;lat;lon;timestamp;temperature;humidity
1337;DHT22;662;48.814;9.318;2023-11-21T00:01:01;11.00;74.10
1337;DHT22;662;48.814;9.318;2023-11-21T00:03:29;11.00;74.20
1337;DHT22;662;48.814;9.318;2023-11-21T00:05:55;11.00;74.30
1337;DHT22;662;48.814;9.318;2023-11-21T00:08:21;11.00;74.30
1337;DHT22;662;48.814;9.318;2023-11-21T00:10:46;10.90;74.20
1337;DHT22;662;48.814;9.318;2023-11-21T00:13:13;10.90;74.10
1337;DHT22;662;48.814;9.318;2023-11-21T00:15:42;10.90;74.00
1337;DHT22;662;48.814;9.318;2023-11-21T00:18:07;10.90;73.90
1337;DHT22;662;48.814;9.318;2023-11-21T00:20:34;10.80;73.90
1337;DHT22;662;48.814;9.318;2023-11-21T00:22:59;10.80;74.10
1337;DHT22;662;48.814;9.318;2023-11-21T00:25:25;10.80;74.50
1337;DHT22;662;48.814;9.318;2023-11-21T00:27:51;10.80;74.70
1337;DHT22;662;48.814;9.318;2023-11-21T00:30:16;10.70;74.70
1337;DHT22;662;48.814;9.318;2023-11-21T00:32:42;10.70;74.80
1337;DHT22;662;48.814;9.318;2023-11-21T00:35:11;10.70;74.90
1337;DHT22;662;48.814;9.318;2023-11-21T00:37:37;10.70;75.10
1337;DHT22;662;48.814;9.318;2023-11-21T00:40:04;10.70;75.20
1337;DHT22;662;48.814;9.318;2023-11-21T00:42:31;10.70;75.20
1337;DHT22;662;48.814;9.318;2023-11-21T00:44:59;10.70;75.30
1337;DHT22;662;48.814;9.318;2023-11-21T00:47:25;10.70;75.40
1337;DHT22;662;48.814;9.318;2023-11-21T00:49:50;10.60;75.40
1337;DHT22;662;48.814;9.318;2023-11-21T00:52:16;10.70;75.50
1337;DHT22;662;48.814;9.318;2023-11-21T00:54:42;10.70;75.50
1337;DHT22;662;48.814;9.318;2023-11-21T00:57:08;10.70;75.50
1337;DHT22;662;48.814;9.318;2023-11-21T00:59:34;10.70;75.60
1337;DHT22;662;48.814;9.318;2023-11-21T01:02:00;10.70;75.50
1337;DHT22;662;48.814;9.318;2023-11-21T01:04:27;10.70;75.60
1337;DHT22;662;48.814;9.318;2023-11-21T01:06:52;10.70;75.60
1337;DHT22;662;48.814;9.318;2023-11-21T01:09:18;10.70;75.60
1337;DHT22;662;48.814;9.318;2023-11-21T01:11:44;10.70;75.60
1337;DHT22;662;48.814;9.318;2023-11-21T01:14:09;10.70;75.60
1337;DHT22;662;48.814;9.318;2023-11-21T01:16:35;10.70;75.70
1337;DHT22;662;48.814;9.318;2023-11-21T01:19:01;10.70;75.80
1337;DHT22;662;48.814;9.318;2023-11-21T01:21:27;10.70;75.90
1337;DHT22;662;48.814;9.318;2023-11-21T01:23:53;10.70;75.80
1337;DHT22;662;48.814;9.318;2023-11-21T01:26:22;10.70;76.00
1337;DHT22;662;48.814;9.318;2023-11-21T01:28:47;10.70;76.00
1337;DHT22;662;48.814;9.318;2023-11-21T01:31:16;10.70;76.10
1337;DHT22;662;48.814;9.318;2023-11-21T01:33:42;10.70;76.20
1337;DHT22;662;48.814;9.318;2023-11-21T01:36:08;10.70;76.40
1337;DHT22;662;48.814;9.318;2023-11-21T01:38:33;10.70;76.40
1337;DHT22;662;48.814;9.318;2023-11-21T01:41:00;10.70;76.70
1337;DHT22;662;48.814;9.318;2023-11-21T01:43:27;10.60;76.80
1337;DHT22;662;48.814;9.318;2023-11-21T01:45:54;10.60;77.10
1337;DHT22;662;48.814;9.318;2023-11-21T01:48:22;10.60;77.40
1337;DHT22;662;48.814;9.318;2023-11-21T01:50:48;10.60;77.70
1337;DHT22;662;48.814;9.318;2023-11-21T01:53:14;10.60;77.80
1337;DHT22;662;48.814;9.318;2023-11-21T01:55:41;10.60;77.80
1337;DHT22;662;48.814;9.318;2023-11-21T01:58:08;10.60;77.70
1337;DHT22;662;48.814;9.318;2023-11-21T02:00:35;10.70;77.80
1337;DHT22;662;48.814;9.318;2023-11-21T02:03:00;10.70;77.70
1337;DHT22;662;48.814;9.318;2023-11-21T02:05:26;10.70;77.70
1337;DHT22;662;48.814;9.318;2023-11-21T02:07:52;10.70;77.60
1337;DHT22;662;48.814;9.318;2023-11-21T02:10:18;10.80;77.50
1337;DHT22;662;48.814;9.318;2023-11-21T02:12:49;10.80;77.50
1337;DHT22;662;48.814;9.318;2023-11-21T02:15:18;10.80;77.30
1337;DHT22;662;48.814;9.318;2023-11-21T02:17:47;10.80;77.20
1337;DHT22;662;48.814;9.318;2023-11-21T02:20:17;10.80;77.00
1337;DHT22;662;48.814;9.318;2023-11-21T02:22:48;10.80;76.80
1337;DHT22;662;48.814;9.318;2023-11-21T02:25:14;10.80;76.60
1337;DHT22;662;48.814;9.318;2023-11-21T02:27:39;10.80;76.40
1337;DHT22;662;48.814;9.318;2023-11-21T02:30:05;10.80;76.40
1337;DHT22;662;48.814;9.318;2023-11-21T02:32:33;10.80;76.30
1337;DHT22;662;48.814;9.318;2023-11-21T02:34:59;10.70;76.10
1337;DHT22;662;48.814;9.318;2023-11-21T02:37:28;10.80;76.10
1337;DHT22;662;48.814;9.318;2023-11-21T02:39:53;10.80;76.00
1337;DHT22;662;48.814;9.318;2023-11-21T02:42:19;10.80;76.00
1337;DHT22;662;48.814;9.318;2023-11-21T02:44:44;10.80;76.00
1337;DHT22;662;48.814;9.318;2023-11-21T02:47:10;10.80;75.80
1337;DHT22;662;48.814;9.318;2023-11-21T02:49:36;10.80;75.90
1337;DHT22;662;48.814;9.318;2023-11-21T02:52:02;10.80;75.80
1337;DHT22;662;48.814;9.318;2023-11-21T02:54:27;10.80;76.30
1337;DHT22;662;48.814;9.318;2023-11-21T02:56:53;10.80;75.60
1337;DHT22;662;48.814;9.318;2023-11-21T02:59:19;10.80;75.40
1337;DHT22;662;48.814;9.318;2023-11-21T03:01:45;10.80;75.20
1337;DHT22;662;48.814;9.318;2023-11-21T03:04:11;10.90;75.20
1337;DHT22;662;48.814;9.318;2023-11-21T03:06:43;10.90;75.20
1337;DHT22;662;48.814;9.318;2023-11-21T03:09:09;10.90;75.10
1337;DHT22;662;48.814;9.318;2023-11-21T03:11:35;10.90;75.10
1337;DHT22;662;48.814;9.318;2023-11-21T03:14:00;11.00;75.10
1337;DHT22;662;48.814;9.318;2023-11-21T03:16:26;11.00;75.00
1337;DHT22;662;48.814;9.318;2023-11-21T03:18:52;11.00;74.90
1337;DHT22;662;48.814;9.318;2023-11-21T03:21:17;11.00;74.80
1337;DHT22;662;48.814;9.318;2023-11-21T03:23:43;11.00;74.80
1337;DHT22;662;48.814;9.318;2023-11-21T03:26:12;11.00;74.70
1337;DHT22;662;48.814;9.318;2023-11-21T03:28:38;11.00;74.60
1337;DHT22;662;48.814;9.318;2023-11-21T03:31:04;11.00;74.60
1337;DHT22;662;48.814;9.318;2023-11-21T03:33:29;11.00;74.60
1337;DHT22;662;48.814;9.318;2023-11-21T03:35:55;11.10;74.50
1337;DHT22;662;48.814;9.318;2023-11-21T03:38:20;11.00;74.30
1337;DHT22;662;48.814;9.318;2023-11-21T03:40:46;11.10;74.30
1337;DHT22;662;48.814;9.318;2023-11-21T03:43:13;11.00;74.20
1337;DHT22;662;48.814;9.318;2023-11-21T03:45:38;11.10;74.20
1337;DHT22;662;48.814;9.318;2023-11-21T03:48:06;11.00;74.00
1337;DHT22;662;48.814;9.318;2023-11-21T03:50:32;11.00;73.90
1337;DHT22;662;48.814;9.318;2023-11-21T03:52:57;11.10;74.00
1337;DHT22;662;48.814;9.318;2023-11-21T03:55:23;11.00;73.90
1337;DHT22;662;48.814;9.318;2023-11-21T03:57:52;11.10;73.90
1337;DHT22;662;48.814;9.318;2023-11-21T04:00:17;11.10;73.80
1337;DHT22;662;48.814;9.318;2023-11-21T04:02:45;11.00;73.70
1337;DHT22;662;48.814;9.318;2023-11-21T04:05:11;11.10;73.80
1337;DHT22;662;48.814;9.318;2023-11-21T04:07:37;11.10;73.70
1337;DHT22;662;48.814;9.318;2023-11-21T04:10:05;11.10;73.70
1337;DHT22;662;48.814;9.318;2023-11-21T04:12:33;11.10;73.70
1337;DHT22;662;48.814;9.318;2023-11-21T04:14:59;11.10;73.70
1337;DHT22;662;48.814;9.318;2023-11-21T04:17:25;11.10;73.70
1337;DHT22;662;48.814;9.318;2023-11-21T04:19:50;11.10;73.70
1337;DHT22;662;48.814;9.318;2023-11-21T04:22:16;11.10;73.70
1337;DHT22;662;48.814;9.318;2023-11-21T04:24:41;11.20;73.70
1337;DHT22;662;48.814;9.318;2023-11-21T04:27:07;11.20;73.70
1337;DHT22;662;48.814;9.318;2023-11-21T04:29:33;11.20;73.50
1337;DHT22;662;48.814;9.318;2023-11-21T04:32:00;11.10;73.30
1337;DHT22;662;48.814;9.318;2023-11-21T04:34:26;11.10;73.40
1337;DHT22;662;48.814;9.318;2023-11-21T04:36:52;11.10;73.60
1337;DHT22;662;48.814;9.318;2023-11-21T04:39:17;11.10;73.70
1337;DHT22;662;48.814;9.318;2023-11-21T04:41:43;11.10;73.80
1337;DHT22;662;48.814;9.318;2023-11-21T04:44:08;11.10;73.90
1337;DHT22;662;48.814;9.318;2023-11-21T04:46:34;11.10;74.00
1337;DHT22;662;48.814;9.318;2023-11-21T04:49:00;11.10;74.20
1337;DHT22;662;48.814;9.318;2023-11-21T04:51:25;11.10;74.30
1337;DHT22;662;48.814;9.318;2023-11-21T04:53:51;11.00;74.30
1337;DHT22;662;48.814;9.318;2023-11-21T04:56:17;11.00;74.40
1337;DHT22;662;48.814;9.318;2023-11-21T04:58:42;11.00;74.50
1337;DHT22;662;48.814;9.318;2023-11-21T05:01:08;11.00;74.60
1337;DHT22;662;48.814;9.318;2023-11-21T05:03:34;11.00;74.60
1337;DHT22;662;48.814;9.318;2023-11-21T05:06:00;11.00;74.80
1337;DHT22;662;48.814;9.318;2023-11-21T05:08:26;11.00;74.80
1337;DHT22;662;48.814;9.318;2023-11-21T05:10:52;11.00;74.90
1337;DHT22;662;48.814;9.318;2023-11-21T05:13:19;11.00;74.90
1337;DHT22;662;48.814;9.318;2023-11-21T05:15:45;11.00;74.90
1337;DHT22;662;48.814;9.318;2023-11-21T05:18:11;11.00;74.90
1337;DHT22;662;48.814;9.318;2023-11-21T05:20:39;11.00;75.00
1337;DHT22;662;48.814;9.318;2023-11-21T05:23:06;11.00;75.00
1337;DHT22;662;48.814;9.318;2023-11-21T05:25:33;11.00;75.00
1337;DHT22;662;48.814;9.318;2023-11-21T05:28:02;11.00;75.10
1337;DHT22;662;48.814;9.318;2023-11-21T05:30:30;11.00;75.10
1337;DHT22;662;48.814;9.318;2023-11-21T05:32:56;11.00;75.10
1337;DHT22;662;48.814;9.318;2023-11-21T05:35:21;11.00;75.20
1337;DHT22;662;48.814;9.318;2023-11-21T05:37:47;11.10;75.20
1337;DHT22;662;48.814;9.318;2023-11-21T05:40:13;11.10;75.30
1337;DHT22;662;48.814;9.318;2023-11-21T05:42:39;11.00;75.20
1337;DHT22;662;48.814;9.318;2023-11-21T05:45:06;11.10;75.30
1337;DHT22;662;48.814;9.318;2023-11-21T05:47:40;11.10;75.40
1337;DHT22;662;48.814;9.318;2023-11-21T05:50:07;11.00;75.30
1337;DHT22;662;48.814;9.318;2023-11-21T05:52:36;11.00;75.30
1337;DHT22;662;48.814;9.318;2023-11-21T05:55:03;11.00;75.30
1337;DHT22;662;48.814;9.318;2023-11-21T05:57:30;11.00;75.20
1337;DHT22;662;48.814;9.318;2023-11-21T05:59:56;11.00;75.20
1337;DHT22;662;48.814;9.318;2023-11-21T06:02:21;11.00;75.20
1337;DHT22;662;48.814;9.318;2023-11-21T06:04:50;11.00;75.20
1337;DHT22;662;48.814;9.318;2023-11-21T06:07:16;11.00;75.20
1337;DHT22;662;48.814;9.318;2023-11-21T06:09:41;11.00;75.20
1337;DHT22;662;48.814;9.318;2023-11-21T06:12:07;11.00;75.20
1337;DHT22;662;48.814;9.318;2023-11-21T06:14:33;11.00;75.10
1337;DHT22;662;48.814;9.318;2023-11-21T06:17:03;11.00;75.10
1337;DHT22;662;48.814;9.318;2023-11-21T06:19:29;11.00;75.10
1337;DHT22;662;48.814;9.318;2023-11-21T06:21:54;11.00;75.20
1337;DHT22;662;48.814;9.318;2023-11-21T06:24:20;11.00;75.10
1337;DHT22;662;48.814;9.318;2023-11-21T06:26:46;11.00;75.10
1337;DHT22;662;48.814;9.318;2023-11-21T06:29:14;11.00;75.10
1337;DHT22;662;48.814;9.318;2023-11-21T06:31:39;11.00;75.10
1337;DHT22;662;48.814;9.318;2023-11-21T06:34:06;11.00;75.10
1337;DHT22;662;48.814;9.318;2023-11-21T06:36:31;11.00;75.10
1337;DHT22;662;48.814;9.318;2023-11-21T06:38:57;11.00;75.10
1337;DHT22;662;48.814;9.318;2023-11-21T06:41:23;11.00;75.10
1337;DHT22;662;48.814;9.318;2023-11-21T06:43:49;11.00;75.10
1337;DHT22;662;48.814;9.318;2023-11-21T06:46:15;10.90;74.90
1337;DHT22;662;48.814;9.318;2023-11-21T06:48:42;10.90;74.90
1337;DHT22;662;48.814;9.318;2023-11-21T06:51:08;10.90;74.90
1337;DHT22;662;48.814;9.318;2023-11-21T06:53:34;10.90;75.00
1337;DHT22;662;48.814;9.318;2023-11-21T06:56:01;11.00;75.00
1337;DHT22;662;48.814;9.318;2023-11-21T06:58:26;10.90;74.90
1337;DHT22;662;48.814;9.318;2023-11-21T07:00:52;11.00;75.00
1337;DHT22;662;48.814;9.318;2023-11-21T07:03:18;11.00;75.00
1337;DHT22;662;48.814;9.318;2023-11-21T07:05:45;11.00;75.00
1337;DHT22;662;48.814;9.318;2023-11-21T07:08:10;11.00;75.00
1337;DHT22;662;48.814;9.318;2023-11-21T07:10:36;11.00;75.00
1337;DHT22;662;48.814;9.318;2023-11-21T07:13:03;11.10;75.00
1337;DHT22;662;48.814;9.318;2023-11-21T07:15:28;11.10;75.00
1337;DHT22;662;48.814;9.318;2023-11-21T07:17:54;11.10;75.00
1337;DHT22;662;48.814;9.318;2023-11-21T07:20:20;11.10;75.00
1337;DHT22;662;48.814;9.318;2023-11-21T07:22:46;11.10;75.00
1337;DHT22;662;48.814;9.318;2023-11-21T07:25:12;11.10;75.00
1337;DHT22;662;48.814;9.318;2023-11-21T07:27:38;11.10;74.90
1337;DHT22;662;48.814;9.318;2023-11-21T07:30:04;11.20;75.00
1337;DHT22;662;48.814;9.318;2023-11-21T07:32:31;11.20;74.90
1337;DHT22;662;48.814;9.318;2023-11-21T07:34:57;11.20;74.90
1337;DHT22;662;48.814;9.318;2023-11-21T07:37:24;11.20;74.90
1337;DHT22;662;48.814;9.318;2023-11-21T07:39:51;11.30;74.90
1337;DHT22;662;48.814;9.318;2023-11-21T07:42:23;11.30;74.80
1337;DHT22;662;48.814;9.318;2023-11-21T07:44:49;11.30;74.80
1337;DHT22;662;48.814;9.318;2023-11-21T07:47:15;11.30;74.70
1337;DHT22;662;48.814;9.318;2023-11-21T07:49:42;11.30;74.70
1337;DHT22;662;48.814;9.318;2023-11-21T07:52:09;11.40;74.80
1337;DHT22;662;48.814;9.318;2023-11-21T07:54:35;11.40;74.70
1337;DHT22;662;48.814;9.318;2023-11-21T07:57:01;11.40;74.70
1337;DHT22;662;48.814;9.318;2023-11-21T07:59:27;11.50;74.80
1337;DHT22;662;48.814;9.318;2023-11-21T08:01:52;11.50;74.90
1337;DHT22;662;48.814;9.318;2023-11-21T08:04:18;11.50;74.80
1337;DHT22;662;48.814;9.318;2023-11-21T08:06:44;11.50;74.80
1337;DHT22;662;48.814;9.318;2023-11-21T08:09:09;11.50;74.80
1337;DHT22;662;48.814;9.318;2023-11-21T08:11:37;11.60;74.90
1337;DHT22;662;48.814;9.318;2023-11-21T08:14:04;11.60;74.80
1337;DHT22;662;48.814;9.318;2023-11-21T08:16:30;11.60;74.80
1337;DHT22;662;48.814;9.318;2023-11-21T08:18:56;11.60;74.80
1337;DHT22;662;48.814;9.318;2023-11-21T08:21:22;11.60;74.80
1337;DHT22;662;48.814;9.318;2023-11-21T08:23:50;11.60;74.70
1337;DHT22;662;48.814;9.318;2023-11-21T08:26:20;11.70;74.80
1337;DHT22;662;48.814;9.318;2023-11-21T08:28:46;11.70;74.70
1337;DHT22;662;48.814;9.318;2023-11-21T08:31:12;11.70;74.70
1337;DHT22;662;48.814;9.318;2023-11-21T08:33:38;11.70;74.60
1337;DHT22;662;48.814;9.318;2023-11-21T08:36:10;11.60;74.50
1337;DHT22;662;48.814;9.318;2023-11-21T08:38:37;11.70;74.60
1337;DHT22;662;48.814;9.318;2023-11-21T08:41:06;11.70;74.50
1337;DHT22;662;48.814;9.318;2023-11-21T08:43:36;11.70;74.50
1337;DHT22;662;48.814;9.318;2023-11-21T08:46:08;11.70;74.50
1337;DHT22;662;48.814;9.318;2023-11-21T08:48:36;11.70;74.50
1337;DHT22;662;48.814;9.318;2023-11-21T08:51:04;11.80;74.60
1337;DHT22;662;48.814;9.318;2023-11-21T08:53:30;11.80;74.60
1337;DHT22;662;48.814;9.318;2023-11-21T08:55:56;11.80;74.40
1337;DHT22;662;48.814;9.318;2023-11-21T08:58:22;11.90;74.50
1337;DHT22;662;48.814;9.318;2023-11-21T09:00:48;11.90;74.40
1337;DHT22;662;48.814;9.318;2023-11-21T09:03:13;11.90;74.30
1337;DHT22;662;48.814;9.318;2023-11-21T09:05:39;12.00;74.40
1337;DHT22;662;48.814;9.318;2023-11-21T09:08:05;12.00;74.30
1337;DHT22;662;48.814;9.318;2023-11-21T09:10:33;12.00;74.20
1337;DHT22;662;48.814;9.318;2023-11-21T09:13:01;12.00;74.10
1337;DHT22;662;48.814;9.318;2023-11-21T09:15:27;12.00;74.10
1337;DHT22;662;48.814;9.318;2023-11-21T09:17:53;12.00;73.90
1337;DHT22;662;48.814;9.318;2023-11-21T09:20:18;12.00;73.90
1337;DHT22;662;48.814;9.318;2023-11-21T09:22:48;12.10;73.70
1337;DHT22;662;48.814;9.318;2023-11-21T09:25:14;12.10;73.60
1337;DHT22;662;48.814;9.318;2023-11-21T09:27:40;12.10;73.20
1337;DHT22;662;48.814;9.318;2023-11-21T09:30:09;12.20;73.20
1337;DHT22;662;48.814;9.318;2023-11-21T09:32:35;12.20;73.00
1337;DHT22;662;48.814;9.318;2023-11-21T09:35:06;12.20;72.90
1337;DHT22;662;48.814;9.318;2023-11-21T09:37:33;12.30;72.80
1337;DHT22;662;48.814;9.318;2023-11-21T09:39:59;12.40;72.80
1337;DHT22;662;48.814;9.318;2023-11-21T09:42:39;12.50;72.60
1337;DHT22;662;48.814;9.318;2023-11-21T09:45:21;12.70;72.60
1337;DHT22;662;48.814;9.318;2023-11-21T09:47:49;12.90;72.20
1337;DHT22;662;48.814;9.318;2023-11-21T09:50:17;13.10;71.80
1337;DHT22;662;48.814;9.318;2023-11-21T09:53:09;13.10;71.30
1337;DHT22;662;48.814;9.318;2023-11-21T09:55:37;13.10;70.90
1337;DHT22;662;48.814;9.318;2023-11-21T09:58:06;13.10;70.50
1337;DHT22;662;48.814;9.318;2023-11-21T10:00:33;13.10;70.30
1337;DHT22;662;48.814;9.318;2023-11-21T10:02:59;13.00;69.60
1337;DHT22;662;48.814;9.318;2023-11-21T10:05:25;12.90;69.70
1337;DHT22;662;48.814;9.318;2023-11-21T10:07:51;12.90;69.90
1337;DHT22;662;48.814;9.318;2023-11-21T10:10:22;12.90;69.60
1337;DHT22;662;48.814;9.318;2023-11-21T10:12:50;12.80;69.40
1337;DHT22;662;48.814;9.318;2023-11-21T10:15:21;12.70;69.10
1337;DHT22;662;48.814;9.318;2023-11-21T10:17:49;12.70;69.30
1337;DHT22;662;48.814;9.318;2023-11-21T10:20:15;12.70;69.60
1337;DHT22;662;48.814;9.318;2023-11-21T10:22:42;12.70;69.80
1337;DHT22;662;48.814;9.318;2023-11-21T10:25:09;12.80;69.90
1337;DHT22;662;48.814;9.318;2023-11-21T10:27:36;12.80;69.90
1337;DHT22;662;48.814;9.318;2023-11-21T10:30:04;12.80;69.70
1337;DHT22;662;48.814;9.318;2023-11-21T10:32:30;12.80;69.80
1337;DHT22;662;48.814;9.318;2023-11-21T10:34:58;12.80;69.90
1337;DHT22;662;48.814;9.318;2023-11-21T10:37:25;12.90;69.70
1337;DHT22;662;48.814;9.318;2023-11-21T10:39:58;12.90;69.60
1337;DHT22;662;48.814;9.318;2023-11-21T10:42:24;13.00;69.60
1337;DHT22;662;48.814;9.318;2023-11-21T10:44:50;13.00;69.20
1337;DHT22;662;48.814;9.318;2023-11-21T10:47:16;13.00;69.30
1337;DHT22;662;48.814;9.318;2023-11-21T10:49:44;13.10;69.40
1337;DHT22;662;48.814;9.318;2023-11-21T10:52:13;13.10;69.50
1337;DHT22;662;48.814;9.318;2023-11-21T10:54:43;13.10;69.50
1337;DHT22;662;48.814;9.318;2023-11-21T10:57:10;13.10;69.50
1337;DHT22;662;48.814;9.318;2023-11-21T10:59:36;13.00;69.40
1337;DHT22;662;48.814;9.318;2023-11-21T11:02:14;13.00;69.60
1337;DHT22;662;48.814;9.318;2023-11-21T11:04:47;13.00;69.80
1337;DHT22;662;48.814;9.318;2023-11-21T11:07:14;12.90;69.90
1337;DHT22;662;48.814;9.318;2023-11-21T11:09:41;12.90;70.00
1337;DHT22;662;48.814;9.318;2023-11-21T11:12:08;12.80;70.00
1337;DHT22;662;48.814;9.318;2023-11-21T11:14:35;12.80;70.10
1337;DHT22;662;48.814;9.318;2023-11-21T11:17:02;12.80;70.40
1337;DHT22;662;48.814;9.318;2023-11-21T11:19:30;12.70;70.50
1337;DHT22;662;48.814;9.318;2023-11-21T11:22:21;12.70;70.80
1337;DHT22;662;48.814;9.318;2023-11-21T11:27:54;12.70;71.30
1337;DHT22;662;48.814;9.318;2023-11-21T11:36:25;12.90;71.80
1337;DHT22;662;48.814;9.318;2023-11-21T11:38:51;13.00;71.80
1337;DHT22;662;48.814;9.318;2023-11-21T11:41:30;13.10;71.70
1337;DHT22;662;48.814;9.318;2023-11-21T11:43:58;13.10;71.50
1337;DHT22;662;48.814;9.318;2023-11-21T11:46:44;13.20;71.30
1337;DHT22;662;48.814;9.318;2023-11-21T11:49:27;13.20;70.80
1337;DHT22;662;48.814;9.318;2023-11-21T11:54:56;13.30;70.30
1337;DHT22;662;48.814;9.318;2023-11-21T11:57:25;13.30;70.20
1337;DHT22;662;48.814;9.318;2023-11-21T12:00:14;13.40;70.20
1337;DHT22;662;48.814;9.318;2023-11-21T12:02:49;13.40;70.00
1337;DHT22;662;48.814;9.318;2023-11-21T12:05:16;13.40;70.00
1337;DHT22;662;48.814;9.318;2023-11-21T12:07:54;13.40;69.90
1337;DHT22;662;48.814;9.318;2023-11-21T12:10:25;13.30;69.70
1337;DHT22;662;48.814;9.318;2023-11-21T12:12:53;13.40;69.80
1337;DHT22;662;48.814;9.318;2023-11-21T12:15:19;13.30;69.60
1337;DHT22;662;48.814;9.318;2023-11-21T12:17:46;13.40;69.60
1337;DHT22;662;48.814;9.318;2023-11-21T12:20:19;13.40;69.70
1337;DHT22;662;48.814;9.318;2023-11-21T12:22:58;13.40;69.70
1337;DHT22;662;48.814;9.318;2023-11-21T12:25:31;13.40;69.70
1337;DHT22;662;48.814;9.318;2023-11-21T12:28:00;13.40;69.80
1337;DHT22;662;48.814;9.318;2023-11-21T12:30:27;13.40;69.90
1337;DHT22;662;48.814;9.318;2023-11-21T12:32:57;13.40;70.00
1337;DHT22;662;48.814;9.318;2023-11-21T12:35:25;13.50;70.20
1337;DHT22;662;48.814;9.318;2023-11-21T12:37:52;13.50;70.30
1337;DHT22;662;48.814;9.318;2023-11-21T12:40:19;13.60;70.40
1337;DHT22;662;48.814;9.318;2023-11-21T12:42:46;13.70;70.40
1337;DHT22;662;48.814;9.318;2023-11-21T12:47:55;13.80;70.00
1337;DHT22;662;48.814;9.318;2023-11-21T12:50:23;13.90;69.70
1337;DHT22;662;48.814;9.318;2023-11-21T12:52:52;13.90;69.40
1337;DHT22;662;48.814;9.318;2023-11-21T12:55:20;13.90;69.20
1337;DHT22;662;48.814;9.318;2023-11-21T12:57:51;13.90;69.10
1337;DHT22;662;48.814;9.318;2023-11-21T13:00:20;13.90;69.00
1337;DHT22;662;48.814;9.318;2023-11-21T13:02:56;13.80;68.60
1337;DHT22;662;48.814;9.318;2023-11-21T13:05:39;13.80;69.30
1337;DHT22;662;48.814;9.318;2023-11-21T13:08:07;13.90;68.40
1337;DHT22;662;48.814;9.318;2023-11-21T13:10:35;14.10;68.60
1337;DHT22;662;48.814;9.318;2023-11-21T13:13:06;14.20;68.50
1337;DHT22;662;48.814;9.318;2023-11-21T13:15:38;14.20;68.10
1337;DHT22;662;48.814;9.318;2023-11-21T13:18:06;14.20;67.80
1337;DHT22;662;48.814;9.318;2023-11-21T13:20:31;14.10;67.20
1337;DHT22;662;48.814;9.318;2023-11-21T13:22:58;14.00;66.90
1337;DHT22;662;48.814;9.318;2023-11-21T13:25:25;13.90;67.00
1337;DHT22;662;48.814;9.318;2023-11-21T13:27:56;13.80;67.20
1337;DHT22;662;48.814;9.318;2023-11-21T13:30:22;13.80;67.50
1337;DHT22;662;48.814;9.318;2023-11-21T13:32:55;13.70;67.70
1337;DHT22;662;48.814;9.318;2023-11-21T13:35:27;13.70;68.00
1337;DHT22;662;48.814;9.318;2023-11-21T13:38:05;13.60;68.20
1337;DHT22;662;48.814;9.318;2023-11-21T13:40:32;13.50;68.30
1337;DHT22;662;48.814;9.318;2023-11-21T13:43:00;13.50;68.60
1337;DHT22;662;48.814;9.318;2023-11-21T13:45:29;13.40;68.80
1337;DHT22;662;48.814;9.318;2023-11-21T13:47:56;13.30;68.90
1337;DHT22;662;48.814;9.318;2023-11-21T13:50:28;13.30;69.10
1337;DHT22;662;48.814;9.318;2023-11-21T13:53:01;13.30;69.40
1337;DHT22;662;48.814;9.318;2023-11-21T13:55:44;13.20;69.50
1337;DHT22;662;48.814;9.318;2023-11-21T13:58:11;13.10;69.80
1337;DHT22;662;48.814;9.318;2023-11-21T14:00:42;13.10;70.00
1337;DHT22;662;48.814;9.318;2023-11-21T14:03:14;13.00;70.10
1337;DHT22;662;48.814;9.318;2023-11-21T14:05:47;13.00;70.30
1337;DHT22;662;48.814;9.318;2023-11-21T14:08:20;13.00;70.50
1337;DHT22;662;48.814;9.318;2023-11-21T14:10:47;12.90;70.70
1337;DHT22;662;48.814;9.318;2023-11-21T14:13:18;12.90;70.90
1337;DHT22;662;48.814;9.318;2023-11-21T14:15:45;12.90;71.00
1337;DHT22;662;48.814;9.318;2023-11-21T14:18:12;12.90;71.30
1337;DHT22;662;48.814;9.318;2023-11-21T14:20:42;12.90;71.50
1337;DHT22;662;48.814;9.318;2023-11-21T14:23:09;12.90;71.60
1337;DHT22;662;48.814;9.318;2023-11-21T14:25:36;12.90;71.80
1337;DHT22;662;48.814;9.318;2023-11-21T14:28:06;12.90;71.90
1337;DHT22;662;48.814;9.318;2023-11-21T14:30:32;12.90;71.80
1337;DHT22;662;48.814;9.318;2023-11-21T14:33:00;12.90;71.90
1337;DHT22;662;48.814;9.318;2023-11-21T14:35:27;12.90;71.90
1337;DHT22;662;48.814;9.318;2023-11-21T14:37:53;12.90;71.90
1337;DHT22;662;48.814;9.318;2023-11-21T14:40:20;12.90;71.90
1337;DHT22;662;48.814;9.318;2023-11-21T14:42:49;12.90;71.90
1337;DHT22;662;48.814;9.318;2023-11-21T14:45:18;12.90;71.80
1337;DHT22;662;48.814;9.318;2023-11-21T14:47:46;12.90;71.80
1337;DHT22;662;48.814;9.318;2023-11-21T14:50:20;12.90;71.70
1337;DHT22;662;48.814;9.318;2023-11-21T14:53:04;12.80;71.50
1337;DHT22;662;48.814;9.318;2023-11-21T14:55:32;12.80;71.50
1337;DHT22;662;48.814;9.318;2023-11-21T14:58:06;12.80;71.50
1337;DHT22;662;48.814;9.318;2023-11-21T15:00:36;12.80;71.60
1337;DHT22;662;48.814;9.318;2023-11-21T15:03:02;12.70;71.50
1337;DHT22;662;48.814;9.318;2023-11-21T15:05:28;12.70;71.60
1337;DHT22;662;48.814;9.318;2023-11-21T15:07:55;12.60;71.60
1337;DHT22;662;48.814;9.318;2023-11-21T15:10:37;12.60;71.70
1337;DHT22;662;48.814;9.318;2023-11-21T15:13:12;12.50;71.60
1337;DHT22;662;48.814;9.318;2023-11-21T15:15:39;12.50;72.40
1337;DHT22;662;48.814;9.318;2023-11-21T15:18:05;12.40;71.70
1337;DHT22;662;48.814;9.318;2023-11-21T15:20:32;12.40;71.80
1337;DHT22;662;48.814;9.318;2023-11-21T15:22:58;12.40;72.00
1337;DHT22;662;48.814;9.318;2023-11-21T15:25:23;12.30;72.00
1337;DHT22;662;48.814;9.318;2023-11-21T15:27:49;12.30;72.00
1337;DHT22;662;48.814;9.318;2023-11-21T15:30:16;12.30;72.20
1337;DHT22;662;48.814;9.318;2023-11-21T15:32:45;12.30;72.40
1337;DHT22;662;48.814;9.318;2023-11-21T15:35:12;12.20;72.40
1337;DHT22;662;48.814;9.318;2023-11-21T15:37:40;12.20;72.50
1337;DHT22;662;48.814;9.318;2023-11-21T15:40:06;12.20;72.70
1337;DHT22;662;48.814;9.318;2023-11-21T15:42:34;12.20;72.70
1337;DHT22;662;48.814;9.318;2023-11-21T15:45:02;12.20;72.70
1337;DHT22;662;48.814;9.318;2023-11-21T15:47:28;12.10;72.70
1337;DHT22;662;48.814;9.318;2023-11-21T15:49:54;12.10;72.50
1337;DHT22;662;48.814;9.318;2023-11-21T15:52:19;12.10;72.40
1337;DHT22;662;48.814;9.318;2023-11-21T15:54:45;12.00;72.30
1337;DHT22;662;48.814;9.318;2023-11-21T15:57:12;12.00;72.20
1337;DHT22;662;48.814;9.318;2023-11-21T15:59:40;12.00;72.30
1337;DHT22;662;48.814;9.318;2023-11-21T16:02:07;12.00;72.30
1337;DHT22;662;48.814;9.318;2023-11-21T16:04:33;12.00;72.30
1337;DHT22;662;48.814;9.318;2023-11-21T16:07:01;11.90;72.40
1337;DHT22;662;48.814;9.318;2023-11-21T16:09:27;12.00;72.50
1337;DHT22;662;48.814;9.318;2023-11-21T16:11:57;12.00;72.60
1337;DHT22;662;48.814;9.318;2023-11-21T16:14:24;11.90;72.60
1337;DHT22;662;48.814;9.318;2023-11-21T16:16:59;12.00;72.90
1337;DHT22;662;48.814;9.318;2023-11-21T16:19:25;11.90;72.80
1337;DHT22;662;48.814;9.318;2023-11-21T16:21:50;11.90;72.90
1337;DHT22;662;48.814;9.318;2023-11-21T16:24:16;11.90;73.00
1337;DHT22;662;48.814;9.318;2023-11-21T16:26:43;12.00;73.10
1337;DHT22;662;48.814;9.318;2023-11-21T16:29:09;11.90;73.10
1337;DHT22;662;48.814;9.318;2023-11-21T16:31:34;11.90;73.10
1337;DHT22;662;48.814;9.318;2023-11-21T16:34:00;11.90;73.10